sensor_id;sensor_type;location;lat;lon;timestamp;pressure;altitude;pressure_sealevel;temperature;humidity
17309;BME280;8772;42.804;23.426;2022-07-24T00:00:48;94764.25;;;19.80;60.50
17309;BME280;8772;42.804;23.426;2022-07-24T00:03:15;94759.66;;;19.86;60.81
17309;BME280;8772;42.804;23.426;2022-07-24T00:05:42;94764.09;;;19.84;60.20
17309;BME280;8772;42.804;23.426;2022-07-24T00:08:09;94763.38;;;19.74;61.49
17309;BME280;8772;42.804;23.426;2022-07-24T00:10:36;94752.34;;;19.63;60.46
17309;BME280;8772;42.804;23.426;2022-07-24T00:13:03;94759.84;;;19.68;60.68
17309;BME280;8772;42.804;23.426;2022-07-24T00:15:30;94759.91;;;19.59;62.20
17309;BME280;8772;42.804;23.426;2022-07-24T00:17:58;94755.75;;;19.49;62.41
17309;BME280;8772;42.804;23.426;2022-07-24T00:20:26;94757.63;;;19.43;61.70
17309;BME280;8772;42.804;23.426;2022-07-24T00:22:52;94765.34;;;19.36;61.89
17309;BME280;8772;42.804;23.426;2022-07-24T00:25:19;94761.97;;;19.26;63.44
17309;BME280;8772;42.804;23.426;2022-07-24T00:27:47;94757.94;;;19.13;63.80
17309;BME280;8772;42.804;23.426;2022-07-24T00:30:13;94759.00;;;19.15;63.06
17309;BME280;8772;42.804;23.426;2022-07-24T00:32:40;94758.59;;;19.08;64.93
17309;BME280;8772;42.804;23.426;2022-07-24T00:35:09;94762.19;;;19.05;64.67
17309;BME280;8772;42.804;23.426;2022-07-24T00:37:38;94751.25;;;18.99;63.74
17309;BME280;8772;42.804;23.426;2022-07-24T00:40:06;94758.50;;;18.93;64.01
17309;BME280;8772;42.804;23.426;2022-07-24T00:42:33;94752.13;;;19.05;65.05
17309;BME280;8772;42.804;23.426;2022-07-24T00:45:00;94766.59;;;19.02;65.26
17309;BME280;8772;42.804;23.426;2022-07-24T00:47:27;94757.88;;;18.98;64.77
17309;BME280;8772;42.804;23.426;2022-07-24T00:49:54;94758.47;;;19.02;65.62
17309;BME280;8772;42.804;23.426;2022-07-24T00:52:22;94752.16;;;18.96;65.73
17309;BME280;8772;42.804;23.426;2022-07-24T00:54:50;94756.38;;;18.97;66.34
17309;BME280;8772;42.804;23.426;2022-07-24T00:57:17;94757.88;;;18.98;66.18
17309;BME280;8772;42.804;23.426;2022-07-24T00:59:44;94762.50;;;19.07;65.85
17309;BME280;8772;42.804;23.426;2022-07-24T01:02:11;94758.19;;;19.00;66.74
17309;BME280;8772;42.804;23.426;2022-07-24T01:08:02;94756.38;;;18.97;67.57
17309;BME280;8772;42.804;23.426;2022-07-24T01:10:29;94745.59;;;18.88;65.33
17309;BME280;8772;42.804;23.426;2022-07-24T01:12:57;94756.44;;;18.88;65.15
17309;BME280;8772;42.804;23.426;2022-07-24T01:15:24;94748.41;;;18.94;67.80
17309;BME280;8772;42.804;23.426;2022-07-24T01:17:50;94755.63;;;18.97;66.26
17309;BME280;8772;42.804;23.426;2022-07-24T01:20:17;94757.28;;;18.94;67.58
17309;BME280;8772;42.804;23.426;2022-07-24T01:22:46;94744.50;;;18.95;67.15
17309;BME280;8772;42.804;23.426;2022-07-24T01:25:13;94750.38;;;18.93;66.99
17309;BME280;8772;42.804;23.426;2022-07-24T01:27:40;94745.41;;;18.92;66.31
17309;BME280;8772;42.804;23.426;2022-07-24T01:30:08;94742.91;;;18.88;66.80
17309;BME280;8772;42.804;23.426;2022-07-24T01:32:35;94746.09;;;18.78;67.72
17309;BME280;8772;42.804;23.426;2022-07-24T01:35:03;94743.06;;;18.85;66.66
17309;BME280;8772;42.804;23.426;2022-07-24T01:37:30;94743.34;;;18.87;66.73
17309;BME280;8772;42.804;23.426;2022-07-24T01:39:59;94741.47;;;18.93;67.32
17309;BME280;8772;42.804;23.426;2022-07-24T01:42:25;94744.06;;;18.87;66.03
17309;BME280;8772;42.804;23.426;2022-07-24T01:44:52;94740.75;;;18.92;65.87
17309;BME280;8772;42.804;23.426;2022-07-24T01:47:20;94750.25;;;18.88;67.67
17309;BME280;8772;42.804;23.426;2022-07-24T01:49:47;94746.50;;;18.85;67.64
17309;BME280;8772;42.804;23.426;2022-07-24T01:52:14;94749.03;;;18.89;68.04
17309;BME280;8772;42.804;23.426;2022-07-24T01:54:41;94740.84;;;18.74;68.85
17309;BME280;8772;42.804;23.426;2022-07-24T01:57:09;94741.75;;;18.71;67.87
17309;BME280;8772;42.804;23.426;2022-07-24T01:59:36;94739.34;;;18.73;68.32
17309;BME280;8772;42.804;23.426;2022-07-24T02:02:03;94738.00;;;18.69;68.50
17309;BME280;8772;42.804;23.426;2022-07-24T02:04:30;94729.00;;;18.63;70.13
17309;BME280;8772;42.804;23.426;2022-07-24T02:06:57;94730.72;;;18.51;70.69
17309;BME280;8772;42.804;23.426;2022-07-24T02:09:24;94726.53;;;18.50;70.79
17309;BME280;8772;42.804;23.426;2022-07-24T02:11:51;94722.22;;;18.35;71.00
17309;BME280;8772;42.804;23.426;2022-07-24T02:14:20;94721.75;;;18.36;72.16
17309;BME280;8772;42.804;23.426;2022-07-24T02:16:46;94719.38;;;18.20;71.30
17309;BME280;8772;42.804;23.426;2022-07-24T02:19:14;94726.63;;;18.14;69.93
17309;BME280;8772;42.804;23.426;2022-07-24T02:21:41;94719.94;;;18.24;69.92
17309;BME280;8772;42.804;23.426;2022-07-24T02:24:08;94725.94;;;18.37;70.14
17309;BME280;8772;42.804;23.426;2022-07-24T02:26:35;94723.22;;;18.37;70.10
17309;BME280;8772;42.804;23.426;2022-07-24T02:29:02;94724.75;;;18.38;68.58
17309;BME280;8772;42.804;23.426;2022-07-24T02:31:31;94726.19;;;18.48;69.93
17309;BME280;8772;42.804;23.426;2022-07-24T02:33:58;94716.75;;;18.44;68.60
17309;BME280;8772;42.804;23.426;2022-07-24T02:36:25;94712.72;;;18.39;70.86
17309;BME280;8772;42.804;23.426;2022-07-24T02:38:52;94719.66;;;18.31;71.12
17309;BME280;8772;42.804;23.426;2022-07-24T02:41:19;94714.53;;;18.33;70.31
17309;BME280;8772;42.804;23.426;2022-07-24T02:43:46;94727.63;;;18.35;69.64
17309;BME280;8772;42.804;23.426;2022-07-24T02:46:14;94731.34;;;18.46;70.82
17309;BME280;8772;42.804;23.426;2022-07-24T02:48:42;94723.34;;;18.52;72.22
17309;BME280;8772;42.804;23.426;2022-07-24T02:51:09;94724.25;;;18.49;72.42
17309;BME280;8772;42.804;23.426;2022-07-24T02:53:37;94720.84;;;18.39;72.71
17309;BME280;8772;42.804;23.426;2022-07-24T02:56:04;94720.25;;;18.35;74.18
17309;BME280;8772;42.804;23.426;2022-07-24T02:58:32;94727.47;;;18.38;73.58
17309;BME280;8772;42.804;23.426;2022-07-24T03:00:58;94727.16;;;18.36;74.82
17309;BME280;8772;42.804;23.426;2022-07-24T03:03:26;94729.56;;;18.34;76.23
17309;BME280;8772;42.804;23.426;2022-07-24T03:05:54;94731.09;;;18.26;76.07
17309;BME280;8772;42.804;23.426;2022-07-24T03:08:21;94738.03;;;18.18;76.37
17309;BME280;8772;42.804;23.426;2022-07-24T03:10:48;94739.53;;;18.10;75.91
17309;BME280;8772;42.804;23.426;2022-07-24T03:13:15;94749.78;;;18.06;76.17
17309;BME280;8772;42.804;23.426;2022-07-24T03:15:42;94745.56;;;18.05;77.47
17309;BME280;8772;42.804;23.426;2022-07-24T03:18:09;94751.28;;;17.98;77.88
17309;BME280;8772;42.804;23.426;2022-07-24T03:20:36;94742.88;;;17.96;79.92
17309;BME280;8772;42.804;23.426;2022-07-24T03:23:04;94738.38;;;17.93;79.93
17309;BME280;8772;42.804;23.426;2022-07-24T03:25:31;94738.09;;;18.00;81.91
17309;BME280;8772;42.804;23.426;2022-07-24T03:27:58;94742.56;;;18.03;82.59
17309;BME280;8772;42.804;23.426;2022-07-24T03:30:25;94743.78;;;18.02;76.36
17309;BME280;8772;42.804;23.426;2022-07-24T03:32:52;94739.25;;;18.08;79.90
17309;BME280;8772;42.804;23.426;2022-07-24T03:35:19;94742.09;;;18.14;82.21
17309;BME280;8772;42.804;23.426;2022-07-24T03:37:46;94738.03;;;18.18;85.42
17309;BME280;8772;42.804;23.426;2022-07-24T03:40:14;94731.84;;;18.18;84.90
17309;BME280;8772;42.804;23.426;2022-07-24T03:42:41;94731.69;;;18.21;85.40
17309;BME280;8772;42.804;23.426;2022-07-24T03:45:09;94740.28;;;18.29;85.24
17309;BME280;8772;42.804;23.426;2022-07-24T03:47:36;94742.66;;;18.36;84.70
17309;BME280;8772;42.804;23.426;2022-07-24T03:50:04;94743.09;;;18.43;85.85
17309;BME280;8772;42.804;23.426;2022-07-24T03:52:31;94752.69;;;18.53;84.87
17309;BME280;8772;42.804;23.426;2022-07-24T03:54:58;94740.00;;;18.59;84.13
17309;BME280;8772;42.804;23.426;2022-07-24T03:57:26;94752.34;;;18.60;84.16
17309;BME280;8772;42.804;23.426;2022-07-24T03:59:53;94742.25;;;18.61;84.31
17309;BME280;8772;42.804;23.426;2022-07-24T04:02:20;94742.09;;;18.64;85.03
17309;BME280;8772;42.804;23.426;2022-07-24T04:04:47;94745.09;;;18.66;85.67
17309;BME280;8772;42.804;23.426;2022-07-24T04:07:14;94742.53;;;18.72;84.88
17309;BME280;8772;42.804;23.426;2022-07-24T04:09:41;94741.59;;;18.75;85.16
17309;BME280;8772;42.804;23.426;2022-07-24T04:12:08;94740.97;;;18.80;80.18
17309;BME280;8772;42.804;23.426;2022-07-24T04:14:36;94741.44;;;18.78;83.25
17309;BME280;8772;42.804;23.426;2022-07-24T04:17:03;94742.00;;;18.82;83.81
17309;BME280;8772;42.804;23.426;2022-07-24T04:19:31;94734.00;;;18.88;85.66
17309;BME280;8772;42.804;23.426;2022-07-24T04:21:58;94745.25;;;18.95;87.60
17309;BME280;8772;42.804;23.426;2022-07-24T04:24:25;94734.81;;;19.03;94.09
17309;BME280;8772;42.804;23.426;2022-07-24T04:26:52;94747.75;;;19.08;94.04
17309;BME280;8772;42.804;23.426;2022-07-24T04:29:19;94742.44;;;19.13;95.05
17309;BME280;8772;42.804;23.426;2022-07-24T04:31:47;94741.81;;;19.18;96.66
17309;BME280;8772;42.804;23.426;2022-07-24T04:34:14;94743.72;;;19.27;100.00
17309;BME280;8772;42.804;23.426;2022-07-24T04:36:42;94733.63;;;19.27;100.00
17309;BME280;8772;42.804;23.426;2022-07-24T04:39:09;94745.06;;;19.31;100.00
17309;BME280;8772;42.804;23.426;2022-07-24T04:41:36;94748.91;;;19.39;100.00
17309;BME280;8772;42.804;23.426;2022-07-24T04:44:04;94751.53;;;19.48;100.00
17309;BME280;8772;42.804;23.426;2022-07-24T04:46:31;94744.44;;;19.51;100.00
17309;BME280;8772;42.804;23.426;2022-07-24T04:48:59;94750.16;;;19.53;100.00
17309;BME280;8772;42.804;23.426;2022-07-24T04:51:26;94760.66;;;19.60;100.00
17309;BME280;8772;42.804;23.426;2022-07-24T04:53:53;94765.25;;;19.68;100.00
17309;BME280;8772;42.804;23.426;2022-07-24T04:56:20;94762.38;;;19.72;100.00
17309;BME280;8772;42.804;23.426;2022-07-24T04:58:47;94770.41;;;19.81;100.00
17309;BME280;8772;42.804;23.426;2022-07-24T05:01:15;94757.16;;;19.83;100.00
17309;BME280;8772;42.804;23.426;2022-07-24T05:03:41;94753.03;;;19.87;100.00
17309;BME280;8772;42.804;23.426;2022-07-24T05:06:10;94766.34;;;20.00;100.00
17309;BME280;8772;42.804;23.426;2022-07-24T05:08:37;94772.00;;;20.11;100.00
17309;BME280;8772;42.804;23.426;2022-07-24T05:11:04;94769.38;;;20.16;100.00
17309;BME280;8772;42.804;23.426;2022-07-24T05:13:31;94762.66;;;20.26;100.00
17309;BME280;8772;42.804;23.426;2022-07-24T05:15:58;94766.97;;;20.32;100.00
17309;BME280;8772;42.804;23.426;2022-07-24T05:18:25;94763.22;;;20.44;100.00
17309;BME280;8772;42.804;23.426;2022-07-24T05:20:51;94763.66;;;20.57;100.00
17309;BME280;8772;42.804;23.426;2022-07-24T05:23:20;94754.91;;;20.68;100.00
17309;BME280;8772;42.804;23.426;2022-07-24T05:25:47;94762.56;;;20.84;100.00
17309;BME280;8772;42.804;23.426;2022-07-24T05:28:14;94765.75;;;20.97;100.00
17309;BME280;8772;42.804;23.426;2022-07-24T05:30:41;94757.28;;;21.09;100.00
17309;BME280;8772;42.804;23.426;2022-07-24T05:33:07;94764.19;;;21.25;95.93
17309;BME280;8772;42.804;23.426;2022-07-24T05:35:34;94764.38;;;21.41;90.93
17309;BME280;8772;42.804;23.426;2022-07-24T05:38:01;94761.59;;;21.56;88.89
17309;BME280;8772;42.804;23.426;2022-07-24T05:40:30;94757.59;;;21.71;88.19
17309;BME280;8772;42.804;23.426;2022-07-24T05:42:57;94759.53;;;21.91;81.25
17309;BME280;8772;42.804;23.426;2022-07-24T05:45:24;94757.72;;;22.08;77.85
17309;BME280;8772;42.804;23.426;2022-07-24T05:47:51;94758.91;;;22.27;72.50
17309;BME280;8772;42.804;23.426;2022-07-24T05:50:18;94770.22;;;22.40;70.29
17309;BME280;8772;42.804;23.426;2022-07-24T05:52:45;94762.13;;;22.51;68.77
17309;BME280;8772;42.804;23.426;2022-07-24T05:55:12;94759.56;;;22.72;66.68
17309;BME280;8772;42.804;23.426;2022-07-24T05:57:40;94762.66;;;22.91;63.88
17309;BME280;8772;42.804;23.426;2022-07-24T06:00:08;94765.25;;;23.05;62.29
17309;BME280;8772;42.804;23.426;2022-07-24T06:02:35;94766.59;;;23.15;60.10
17309;BME280;8772;42.804;23.426;2022-07-24T06:05:03;94770.34;;;23.29;59.37
17309;BME280;8772;42.804;23.426;2022-07-24T06:07:30;94772.94;;;23.43;59.53
17309;BME280;8772;42.804;23.426;2022-07-24T06:09:56;94771.72;;;23.50;60.08
17309;BME280;8772;42.804;23.426;2022-07-24T06:12:24;94761.31;;;23.59;59.33
17309;BME280;8772;42.804;23.426;2022-07-24T06:14:52;94756.69;;;23.76;56.83
17309;BME280;8772;42.804;23.426;2022-07-24T06:17:19;94763.72;;;23.88;56.76
17309;BME280;8772;42.804;23.426;2022-07-24T06:19:46;94759.50;;;23.98;56.08
17309;BME280;8772;42.804;23.426;2022-07-24T06:22:13;94759.78;;;24.06;56.89
17309;BME280;8772;42.804;23.426;2022-07-24T06:24:39;94760.53;;;24.17;57.23
17309;BME280;8772;42.804;23.426;2022-07-24T06:27:07;94758.31;;;24.27;55.67
17309;BME280;8772;42.804;23.426;2022-07-24T06:29:34;94758.09;;;24.36;54.97
17309;BME280;8772;42.804;23.426;2022-07-24T06:32:03;94746.41;;;24.46;55.90
17309;BME280;8772;42.804;23.426;2022-07-24T06:34:32;94753.41;;;24.58;54.30
17309;BME280;8772;42.804;23.426;2022-07-24T06:36:58;94750.66;;;24.69;53.48
17309;BME280;8772;42.804;23.426;2022-07-24T06:39:25;94748.69;;;24.75;53.82
17309;BME280;8772;42.804;23.426;2022-07-24T06:41:52;94739.97;;;24.82;52.15
17309;BME280;8772;42.804;23.426;2022-07-24T06:44:19;94733.97;;;25.00;53.79
17309;BME280;8772;42.804;23.426;2022-07-24T06:46:48;94737.44;;;25.11;53.78
17309;BME280;8772;42.804;23.426;2022-07-24T06:49:16;94735.69;;;25.25;52.70
17309;BME280;8772;42.804;23.426;2022-07-24T06:51:43;94743.63;;;25.34;52.06
17309;BME280;8772;42.804;23.426;2022-07-24T06:54:10;94736.84;;;25.46;51.13
17309;BME280;8772;42.804;23.426;2022-07-24T06:56:37;94738.06;;;25.56;51.14
17309;BME280;8772;42.804;23.426;2022-07-24T06:59:04;94739.03;;;25.64;50.85
17309;BME280;8772;42.804;23.426;2022-07-24T07:01:31;94736.97;;;25.81;51.86
17309;BME280;8772;42.804;23.426;2022-07-24T07:03:58;94730.75;;;25.80;50.22
17309;BME280;8772;42.804;23.426;2022-07-24T07:06:27;94733.97;;;25.90;51.08
17309;BME280;8772;42.804;23.426;2022-07-24T07:08:54;94732.66;;;26.02;49.33
17309;BME280;8772;42.804;23.426;2022-07-24T07:11:21;94739.03;;;26.15;50.06
17309;BME280;8772;42.804;23.426;2022-07-24T07:13:47;94740.50;;;26.22;51.53
17309;BME280;8772;42.804;23.426;2022-07-24T07:16:14;94737.69;;;26.33;50.16
17309;BME280;8772;42.804;23.426;2022-07-24T07:18:41;94736.13;;;26.43;50.85
17309;BME280;8772;42.804;23.426;2022-07-24T07:21:08;94733.31;;;26.54;47.64
17309;BME280;8772;42.804;23.426;2022-07-24T07:23:36;94725.69;;;26.71;48.35
17309;BME280;8772;42.804;23.426;2022-07-24T07:26:04;94728.88;;;26.80;48.82
17309;BME280;8772;42.804;23.426;2022-07-24T07:28:31;94724.00;;;26.92;51.25
17309;BME280;8772;42.804;23.426;2022-07-24T07:30:58;94725.16;;;27.02;51.20
17309;BME280;8772;42.804;23.426;2022-07-24T07:33:25;94719.63;;;27.07;48.27
17309;BME280;8772;42.804;23.426;2022-07-24T07:35:52;94723.03;;;27.19;49.49
17309;BME280;8772;42.804;23.426;2022-07-24T07:38:19;94716.91;;;27.31;49.43
17309;BME280;8772;42.804;23.426;2022-07-24T07:40:48;94713.72;;;27.45;46.79
17309;BME280;8772;42.804;23.426;2022-07-24T07:43:14;94715.56;;;27.61;48.57
17309;BME280;8772;42.804;23.426;2022-07-24T07:45:41;94721.38;;;27.76;47.82
17309;BME280;8772;42.804;23.426;2022-07-24T07:48:09;94723.38;;;27.94;46.48
17309;BME280;8772;42.804;23.426;2022-07-24T07:50:36;94719.00;;;28.04;47.47
17309;BME280;8772;42.804;23.426;2022-07-24T07:53:03;94716.53;;;28.19;46.76
17309;BME280;8772;42.804;23.426;2022-07-24T07:55:30;94715.09;;;28.31;44.62
17309;BME280;8772;42.804;23.426;2022-07-24T07:57:58;94706.72;;;28.42;45.69
17309;BME280;8772;42.804;23.426;2022-07-24T08:00:25;94716.28;;;28.54;44.77
17309;BME280;8772;42.804;23.426;2022-07-24T08:02:52;94717.16;;;28.62;44.94
17309;BME280;8772;42.804;23.426;2022-07-24T08:05:19;94713.50;;;28.86;43.52
17309;BME280;8772;42.804;23.426;2022-07-24T08:07:46;94710.69;;;28.91;43.60
17309;BME280;8772;42.804;23.426;2022-07-24T08:10:13;94722.78;;;29.01;44.13
17309;BME280;8772;42.804;23.426;2022-07-24T08:12:40;94708.16;;;29.06;43.53
17309;BME280;8772;42.804;23.426;2022-07-24T08:15:10;94716.13;;;29.23;44.74
17309;BME280;8772;42.804;23.426;2022-07-24T08:17:37;94717.72;;;29.31;41.48
17309;BME280;8772;42.804;23.426;2022-07-24T08:20:05;94713.69;;;29.45;42.19
17309;BME280;8772;42.804;23.426;2022-07-24T08:22:32;94712.66;;;29.61;40.39
17309;BME280;8772;42.804;23.426;2022-07-24T08:24:58;94715.59;;;29.76;41.54
17309;BME280;8772;42.804;23.426;2022-07-24T08:27:25;94710.69;;;29.95;41.22
17309;BME280;8772;42.804;23.426;2022-07-24T08:29:53;94716.81;;;30.14;41.29
17309;BME280;8772;42.804;23.426;2022-07-24T08:32:21;94722.50;;;30.29;39.41
17309;BME280;8772;42.804;23.426;2022-07-24T08:34:48;94718.84;;;30.47;37.87
17309;BME280;8772;42.804;23.426;2022-07-24T08:37:18;94713.72;;;30.51;38.06
17309;BME280;8772;42.804;23.426;2022-07-24T08:39:45;94721.31;;;30.58;39.66
17309;BME280;8772;42.804;23.426;2022-07-24T08:42:13;94711.13;;;30.66;40.14
17309;BME280;8772;42.804;23.426;2022-07-24T08:44:39;94722.84;;;30.79;40.00
17309;BME280;8772;42.804;23.426;2022-07-24T08:47:07;94707.69;;;30.93;39.28
17309;BME280;8772;42.804;23.426;2022-07-24T08:49:36;94704.06;;;31.06;39.33
17309;BME280;8772;42.804;23.426;2022-07-24T08:52:05;94706.78;;;31.19;38.67
17309;BME280;8772;42.804;23.426;2022-07-24T08:54:33;94706.81;;;31.26;38.99
17309;BME280;8772;42.804;23.426;2022-07-24T08:57:01;94702.53;;;31.46;37.46
17309;BME280;8772;42.804;23.426;2022-07-24T08:59:28;94694.22;;;31.66;37.38
17309;BME280;8772;42.804;23.426;2022-07-24T09:01:55;94692.41;;;31.84;35.56
17309;BME280;8772;42.804;23.426;2022-07-24T09:04:32;94687.28;;;31.88;33.36
17309;BME280;8772;42.804;23.426;2022-07-24T09:07:03;94690.34;;;32.20;36.48
17309;BME280;8772;42.804;23.426;2022-07-24T09:09:30;94686.19;;;32.48;36.38
17309;BME280;8772;42.804;23.426;2022-07-24T09:12:08;94690.31;;;32.77;35.62
17309;BME280;8772;42.804;23.426;2022-07-24T09:14:37;94687.53;;;33.15;34.66
17309;BME280;8772;42.804;23.426;2022-07-24T09:17:05;94681.59;;;33.48;34.39
17309;BME280;8772;42.804;23.426;2022-07-24T09:19:46;94686.34;;;33.78;32.92
17309;BME280;8772;42.804;23.426;2022-07-24T09:22:23;94675.44;;;34.12;31.37
17309;BME280;8772;42.804;23.426;2022-07-24T09:25:07;94680.34;;;34.36;30.66
17309;BME280;8772;42.804;23.426;2022-07-24T09:27:36;94691.06;;;34.64;30.54
17309;BME280;8772;42.804;23.426;2022-07-24T09:30:04;94686.56;;;34.76;31.75
17309;BME280;8772;42.804;23.426;2022-07-24T09:32:31;94690.03;;;35.08;32.19
17309;BME280;8772;42.804;23.426;2022-07-24T09:34:58;94689.94;;;35.40;30.74
17309;BME280;8772;42.804;23.426;2022-07-24T09:37:27;94686.84;;;35.70;30.22
17309;BME280;8772;42.804;23.426;2022-07-24T09:40:06;94687.84;;;35.99;31.10
17309;BME280;8772;42.804;23.426;2022-07-24T09:42:34;94685.03;;;36.16;31.24
17309;BME280;8772;42.804;23.426;2022-07-24T09:45:06;94674.50;;;36.41;30.86
17309;BME280;8772;42.804;23.426;2022-07-24T09:47:37;94675.09;;;36.75;30.85
17309;BME280;8772;42.804;23.426;2022-07-24T09:50:15;94666.03;;;37.11;31.28
17309;BME280;8772;42.804;23.426;2022-07-24T09:52:45;94668.41;;;37.42;29.97
17309;BME280;8772;42.804;23.426;2022-07-24T09:55:30;94668.41;;;37.42;27.46
17309;BME280;8772;42.804;23.426;2022-07-24T09:57:57;94673.16;;;37.50;28.69
17309;BME280;8772;42.804;23.426;2022-07-24T10:00:24;94668.91;;;37.67;28.70
17309;BME280;8772;42.804;23.426;2022-07-24T10:02:52;94662.00;;;37.87;28.83
17309;BME280;8772;42.804;23.426;2022-07-24T10:05:23;94657.88;;;37.88;27.74
17309;BME280;8772;42.804;23.426;2022-07-24T10:07:55;94655.66;;;38.15;26.91
17309;BME280;8772;42.804;23.426;2022-07-24T10:10:25;94654.47;;;38.37;27.17
17309;BME280;8772;42.804;23.426;2022-07-24T10:12:54;94653.72;;;38.46;27.22
17309;BME280;8772;42.804;23.426;2022-07-24T10:15:21;94639.06;;;38.67;27.31
17309;BME280;8772;42.804;23.426;2022-07-24T10:18:14;94645.53;;;38.79;28.40
17309;BME280;8772;42.804;23.426;2022-07-24T10:20:43;94638.72;;;38.82;27.96
17309;BME280;8772;42.804;23.426;2022-07-24T10:23:21;94638.72;;;39.12;28.36
17309;BME280;8772;42.804;23.426;2022-07-24T10:26:01;94631.78;;;39.13;27.14
17309;BME280;8772;42.804;23.426;2022-07-24T10:28:37;94638.53;;;39.20;26.03
17309;BME280;8772;42.804;23.426;2022-07-24T10:31:06;94638.50;;;38.99;25.46
17309;BME280;8772;42.804;23.426;2022-07-24T10:33:35;94640.94;;;38.83;25.35
17309;BME280;8772;42.804;23.426;2022-07-24T10:36:06;94639.47;;;38.82;26.47
17309;BME280;8772;42.804;23.426;2022-07-24T10:38:38;94633.28;;;38.74;25.67
17309;BME280;8772;42.804;23.426;2022-07-24T10:41:13;94627.44;;;38.61;26.22
17309;BME280;8772;42.804;23.426;2022-07-24T10:44:15;94623.00;;;38.67;25.90
17309;BME280;8772;42.804;23.426;2022-07-24T10:46:57;94616.09;;;38.68;26.67
17309;BME280;8772;42.804;23.426;2022-07-24T10:49:35;94612.47;;;38.56;25.19
17309;BME280;8772;42.804;23.426;2022-07-24T10:52:03;94612.38;;;38.45;25.76
17309;BME280;8772;42.804;23.426;2022-07-24T10:54:31;94611.97;;;38.39;27.05
17309;BME280;8772;42.804;23.426;2022-07-24T10:56:58;94607.22;;;38.41;25.62
17309;BME280;8772;42.804;23.426;2022-07-24T10:59:32;94603.75;;;38.12;26.76
17309;BME280;8772;42.804;23.426;2022-07-24T11:02:25;94594.75;;;38.23;26.50
17309;BME280;8772;42.804;23.426;2022-07-24T11:05:23;94598.56;;;38.37;25.95
17309;BME280;8772;42.804;23.426;2022-07-24T11:08:12;94593.03;;;38.58;25.73
17309;BME280;8772;42.804;23.426;2022-07-24T11:10:48;94579.56;;;38.45;25.24
17309;BME280;8772;42.804;23.426;2022-07-24T11:13:40;94578.69;;;38.33;25.93
17309;BME280;8772;42.804;23.426;2022-07-24T11:16:16;94576.59;;;38.43;25.76
17309;BME280;8772;42.804;23.426;2022-07-24T11:19:29;94573.69;;;38.72;26.78
17309;BME280;8772;42.804;23.426;2022-07-24T11:22:10;94570.69;;;38.89;25.75
17309;BME280;8772;42.804;23.426;2022-07-24T11:27:25;94571.41;;;39.31;25.59
17309;BME280;8772;42.804;23.426;2022-07-24T11:29:55;94573.81;;;39.46;25.01
17309;BME280;8772;42.804;23.426;2022-07-24T11:32:27;94563.66;;;39.62;25.61
17309;BME280;8772;42.804;23.426;2022-07-24T11:34:55;94564.97;;;39.82;24.80
17309;BME280;8772;42.804;23.426;2022-07-24T11:37:22;94571.66;;;39.77;24.43
17309;BME280;8772;42.804;23.426;2022-07-24T11:39:56;94563.88;;;39.87;25.66
17309;BME280;8772;42.804;23.426;2022-07-24T11:42:22;94571.31;;;39.83;25.10
17309;BME280;8772;42.804;23.426;2022-07-24T11:44:51;94563.44;;;39.37;25.72
17309;BME280;8772;42.804;23.426;2022-07-24T11:47:20;94561.56;;;39.30;25.79
17309;BME280;8772;42.804;23.426;2022-07-24T11:49:48;94564.78;;;38.85;25.37
17309;BME280;8772;42.804;23.426;2022-07-24T11:52:18;94560.38;;;38.51;25.26
17309;BME280;8772;42.804;23.426;2022-07-24T11:54:46;94552.97;;;38.25;24.54
17309;BME280;8772;42.804;23.426;2022-07-24T11:57:18;94561.28;;;38.04;23.89
17309;BME280;8772;42.804;23.426;2022-07-24T11:59:47;94565.28;;;37.82;24.87
17309;BME280;8772;42.804;23.426;2022-07-24T12:02:16;94557.81;;;37.28;24.26
17309;BME280;8772;42.804;23.426;2022-07-24T12:04:44;94563.22;;;37.17;25.31
17309;BME280;8772;42.804;23.426;2022-07-24T12:07:13;94557.50;;;37.05;24.64
17309;BME280;8772;42.804;23.426;2022-07-24T12:09:46;94553.47;;;36.80;24.38
17309;BME280;8772;42.804;23.426;2022-07-24T12:12:25;94540.00;;;36.95;26.04
17309;BME280;8772;42.804;23.426;2022-07-24T12:14:59;94542.97;;;37.26;25.55
17309;BME280;8772;42.804;23.426;2022-07-24T12:17:30;94543.53;;;37.24;24.41
17309;BME280;8772;42.804;23.426;2022-07-24T12:19:59;94540.63;;;37.13;25.49
17309;BME280;8772;42.804;23.426;2022-07-24T12:22:27;94550.25;;;36.83;25.29
17309;BME280;8772;42.804;23.426;2022-07-24T12:24:56;94546.00;;;36.82;25.07
17309;BME280;8772;42.804;23.426;2022-07-24T12:27:47;94537.28;;;36.69;24.84
17309;BME280;8772;42.804;23.426;2022-07-24T12:30:22;94535.53;;;36.64;25.24
17309;BME280;8772;42.804;23.426;2022-07-24T12:32:59;94530.81;;;36.57;25.65
17309;BME280;8772;42.804;23.426;2022-07-24T12:35:27;94533.13;;;36.51;25.40
17309;BME280;8772;42.804;23.426;2022-07-24T12:37:56;94535.75;;;36.49;26.16
17309;BME280;8772;42.804;23.426;2022-07-24T12:40:30;94532.22;;;36.39;25.56
17309;BME280;8772;42.804;23.426;2022-07-24T12:43:06;94522.63;;;36.23;25.91
17309;BME280;8772;42.804;23.426;2022-07-24T12:45:33;94532.03;;;36.01;25.48
17309;BME280;8772;42.804;23.426;2022-07-24T12:48:10;94530.41;;;35.98;25.83
17309;BME280;8772;42.804;23.426;2022-07-24T12:50:38;94528.75;;;35.95;26.30
17309;BME280;8772;42.804;23.426;2022-07-24T12:53:06;94523.53;;;35.99;26.57
17309;BME280;8772;42.804;23.426;2022-07-24T12:55:34;94528.22;;;36.06;24.52
17309;BME280;8772;42.804;23.426;2022-07-24T12:58:03;94522.59;;;35.87;25.03
17309;BME280;8772;42.804;23.426;2022-07-24T13:00:31;94517.25;;;36.08;26.29
17309;BME280;8772;42.804;23.426;2022-07-24T13:02:58;94513.63;;;36.15;25.63
17309;BME280;8772;42.804;23.426;2022-07-24T13:05:40;94513.94;;;36.19;26.02
17309;BME280;8772;42.804;23.426;2022-07-24T13:08:10;94504.97;;;36.11;25.76
17309;BME280;8772;42.804;23.426;2022-07-24T13:10:37;94504.16;;;36.27;25.86
17309;BME280;8772;42.804;23.426;2022-07-24T13:13:04;94504.88;;;36.28;24.51
17309;BME280;8772;42.804;23.426;2022-07-24T13:15:31;94493.75;;;36.28;24.41